sensor_id;sensor_type;location;lat;lon;timestamp;temperature;humidity
6206;DHT22;3136;48.788;9.772;2023-06-10T00:00:00;14.00;99.90
6206;DHT22;3136;48.788;9.772;2023-06-10T00:02:26;14.10;99.90
6206;DHT22;3136;48.788;9.772;2023-06-10T00:04:52;13.90;99.90
6206;DHT22;3136;48.788;9.772;2023-06-10T00:07:18;13.90;99.90
6206;DHT22;3136;48.788;9.772;2023-06-10T00:09:43;13.80;99.90
6206;DHT22;3136;48.788;9.772;2023-06-10T00:12:09;13.80;99.90
6206;DHT22;3136;48.788;9.772;2023-06-10T00:14:39;13.80;99.90
6206;DHT22;3136;48.788;9.772;2023-06-10T00:17:06;13.80;99.90
6206;DHT22;3136;48.788;9.772;2023-06-10T00:19:34;13.70;99.90
6206;DHT22;3136;48.788;9.772;2023-06-10T00:22:00;13.70;99.90
6206;DHT22;3136;48.788;9.772;2023-06-10T00:24:26;13.70;99.90
6206;DHT22;3136;48.788;9.772;2023-06-10T00:26:51;13.60;99.90
6206;DHT22;3136;48.788;9.772;2023-06-10T00:29:17;13.60;99.90
6206;DHT22;3136;48.788;9.772;2023-06-10T00:31:44;13.60;99.90
6206;DHT22;3136;48.788;9.772;2023-06-10T00:34:11;13.50;99.90
6206;DHT22;3136;48.788;9.772;2023-06-10T00:36:37;13.50;99.90
6206;DHT22;3136;48.788;9.772;2023-06-10T00:39:02;13.40;99.90
6206;DHT22;3136;48.788;9.772;2023-06-10T00:41:30;13.40;99.90
6206;DHT22;3136;48.788;9.772;2023-06-10T00:43:56;13.30;99.90
6206;DHT22;3136;48.788;9.772;2023-06-10T00:46:23;13.30;99.90
6206;DHT22;3136;48.788;9.772;2023-06-10T00:48:50;13.30;99.90
6206;DHT22;3136;48.788;9.772;2023-06-10T00:51:16;13.30;99.90
6206;DHT22;3136;48.788;9.772;2023-06-10T00:53:43;13.20;99.90
6206;DHT22;3136;48.788;9.772;2023-06-10T00:56:09;13.20;99.90
6206;DHT22;3136;48.788;9.772;2023-06-10T00:58:35;13.20;99.90
6206;DHT22;3136;48.788;9.772;2023-06-10T01:01:01;13.10;99.90
6206;DHT22;3136;48.788;9.772;2023-06-10T01:03:27;13.10;99.90
6206;DHT22;3136;48.788;9.772;2023-06-10T01:08:58;13.00;99.90
6206;DHT22;3136;48.788;9.772;2023-06-10T01:11:36;12.90;99.90
6206;DHT22;3136;48.788;9.772;2023-06-10T01:14:05;12.90;99.90
6206;DHT22;3136;48.788;9.772;2023-06-10T01:16:33;12.90;99.90
6206;DHT22;3136;48.788;9.772;2023-06-10T01:19:01;12.90;99.90
6206;DHT22;3136;48.788;9.772;2023-06-10T01:21:27;12.90;99.90
6206;DHT22;3136;48.788;9.772;2023-06-10T01:23:53;12.90;99.90
6206;DHT22;3136;48.788;9.772;2023-06-10T01:26:24;12.80;99.90
6206;DHT22;3136;48.788;9.772;2023-06-10T01:28:57;12.80;99.90
6206;DHT22;3136;48.788;9.772;2023-06-10T01:31:34;12.80;99.90
6206;DHT22;3136;48.788;9.772;2023-06-10T01:34:05;12.70;99.90
6206;DHT22;3136;48.788;9.772;2023-06-10T01:36:34;12.70;99.90
6206;DHT22;3136;48.788;9.772;2023-06-10T01:39:00;12.70;99.90
6206;DHT22;3136;48.788;9.772;2023-06-10T01:41:27;12.70;99.90
6206;DHT22;3136;48.788;9.772;2023-06-10T01:43:54;12.70;99.90
6206;DHT22;3136;48.788;9.772;2023-06-10T01:46:20;12.70;99.90
6206;DHT22;3136;48.788;9.772;2023-06-10T01:48:47;12.60;99.90
6206;DHT22;3136;48.788;9.772;2023-06-10T01:51:13;12.60;99.90
6206;DHT22;3136;48.788;9.772;2023-06-10T01:53:38;12.60;99.90
6206;DHT22;3136;48.788;9.772;2023-06-10T01:56:04;12.70;99.90
6206;DHT22;3136;48.788;9.772;2023-06-10T01:58:30;12.50;99.90
6206;DHT22;3136;48.788;9.772;2023-06-10T02:00:56;12.50;99.90
6206;DHT22;3136;48.788;9.772;2023-06-10T02:03:21;12.50;99.90
6206;DHT22;3136;48.788;9.772;2023-06-10T02:05:47;12.50;99.90
6206;DHT22;3136;48.788;9.772;2023-06-10T02:08:12;12.40;99.90
6206;DHT22;3136;48.788;9.772;2023-06-10T02:10:38;12.40;99.90
6206;DHT22;3136;48.788;9.772;2023-06-10T02:13:04;12.40;99.90
6206;DHT22;3136;48.788;9.772;2023-06-10T02:15:29;12.40;99.90
6206;DHT22;3136;48.788;9.772;2023-06-10T02:17:55;12.40;99.90
6206;DHT22;3136;48.788;9.772;2023-06-10T02:20:21;12.30;99.90
6206;DHT22;3136;48.788;9.772;2023-06-10T02:22:47;12.30;99.90
6206;DHT22;3136;48.788;9.772;2023-06-10T02:25:12;12.30;99.90
6206;DHT22;3136;48.788;9.772;2023-06-10T02:27:38;12.30;99.90
6206;DHT22;3136;48.788;9.772;2023-06-10T02:30:04;12.30;99.90
6206;DHT22;3136;48.788;9.772;2023-06-10T02:32:30;12.30;99.90
6206;DHT22;3136;48.788;9.772;2023-06-10T02:34:55;12.20;99.90
6206;DHT22;3136;48.788;9.772;2023-06-10T02:37:21;12.20;1.00
6206;DHT22;3136;48.788;9.772;2023-06-10T02:39:46;12.20;1.00
6206;DHT22;3136;48.788;9.772;2023-06-10T02:42:12;12.20;1.00
6206;DHT22;3136;48.788;9.772;2023-06-10T02:44:38;12.10;1.00
6206;DHT22;3136;48.788;9.772;2023-06-10T02:47:04;12.40;1.00
6206;DHT22;3136;48.788;9.772;2023-06-10T02:49:29;12.10;1.00
6206;DHT22;3136;48.788;9.772;2023-06-10T02:51:55;12.10;1.00
6206;DHT22;3136;48.788;9.772;2023-06-10T02:54:25;12.10;1.00
6206;DHT22;3136;48.788;9.772;2023-06-10T02:56:52;12.10;1.00
6206;DHT22;3136;48.788;9.772;2023-06-10T02:59:18;12.10;1.00
6206;DHT22;3136;48.788;9.772;2023-06-10T03:01:44;12.00;1.00
6206;DHT22;3136;48.788;9.772;2023-06-10T03:04:09;12.00;1.00
6206;DHT22;3136;48.788;9.772;2023-06-10T03:06:38;12.00;1.00
6206;DHT22;3136;48.788;9.772;2023-06-10T03:09:06;12.00;1.00
6206;DHT22;3136;48.788;9.772;2023-06-10T03:11:32;12.10;1.00
6206;DHT22;3136;48.788;9.772;2023-06-10T03:13:58;12.00;1.00
6206;DHT22;3136;48.788;9.772;2023-06-10T03:16:24;12.00;1.00
6206;DHT22;3136;48.788;9.772;2023-06-10T03:18:50;12.00;1.00
6206;DHT22;3136;48.788;9.772;2023-06-10T03:21:16;11.90;1.00
6206;DHT22;3136;48.788;9.772;2023-06-10T03:23:41;11.90;1.00
6206;DHT22;3136;48.788;9.772;2023-06-10T03:26:07;11.90;1.00
6206;DHT22;3136;48.788;9.772;2023-06-10T03:28:33;11.90;1.00
6206;DHT22;3136;48.788;9.772;2023-06-10T03:30:59;11.90;1.00
6206;DHT22;3136;48.788;9.772;2023-06-10T03:33:24;11.90;1.00
6206;DHT22;3136;48.788;9.772;2023-06-10T03:35:51;11.90;1.00
6206;DHT22;3136;48.788;9.772;2023-06-10T03:38:16;11.90;1.00
6206;DHT22;3136;48.788;9.772;2023-06-10T03:40:42;11.90;1.00
6206;DHT22;3136;48.788;9.772;2023-06-10T03:43:08;11.80;1.00
6206;DHT22;3136;48.788;9.772;2023-06-10T03:45:33;11.90;1.00
6206;DHT22;3136;48.788;9.772;2023-06-10T03:48:00;11.90;1.00
6206;DHT22;3136;48.788;9.772;2023-06-10T03:50:26;11.90;1.00
6206;DHT22;3136;48.788;9.772;2023-06-10T03:52:52;12.00;1.00
6206;DHT22;3136;48.788;9.772;2023-06-10T03:55:17;12.00;1.00
6206;DHT22;3136;48.788;9.772;2023-06-10T03:57:43;12.00;1.00
6206;DHT22;3136;48.788;9.772;2023-06-10T04:00:09;12.10;1.00
6206;DHT22;3136;48.788;9.772;2023-06-10T04:02:38;12.10;1.00
6206;DHT22;3136;48.788;9.772;2023-06-10T04:05:11;12.10;1.00
6206;DHT22;3136;48.788;9.772;2023-06-10T04:07:37;12.20;1.00
6206;DHT22;3136;48.788;9.772;2023-06-10T04:10:05;12.60;1.00
6206;DHT22;3136;48.788;9.772;2023-06-10T04:12:31;12.30;1.00
6206;DHT22;3136;48.788;9.772;2023-06-10T04:14:56;12.40;1.00
6206;DHT22;3136;48.788;9.772;2023-06-10T04:17:22;12.80;1.00
6206;DHT22;3136;48.788;9.772;2023-06-10T04:19:48;12.50;1.00
6206;DHT22;3136;48.788;9.772;2023-06-10T04:22:13;12.50;1.00
6206;DHT22;3136;48.788;9.772;2023-06-10T04:24:39;12.60;1.00
6206;DHT22;3136;48.788;9.772;2023-06-10T04:27:05;12.60;1.00
6206;DHT22;3136;48.788;9.772;2023-06-10T04:29:30;12.70;1.00
6206;DHT22;3136;48.788;9.772;2023-06-10T04:31:56;12.80;1.00
6206;DHT22;3136;48.788;9.772;2023-06-10T04:34:21;12.90;1.00
6206;DHT22;3136;48.788;9.772;2023-06-10T04:36:47;12.90;1.00
6206;DHT22;3136;48.788;9.772;2023-06-10T04:39:13;14.30;1.00
6206;DHT22;3136;48.788;9.772;2023-06-10T04:41:38;13.00;1.00
6206;DHT22;3136;48.788;9.772;2023-06-10T04:44:04;13.10;1.00
6206;DHT22;3136;48.788;9.772;2023-06-10T04:46:29;13.30;1.00
6206;DHT22;3136;48.788;9.772;2023-06-10T04:48:57;13.30;99.90
6206;DHT22;3136;48.788;9.772;2023-06-10T04:51:22;13.40;99.90
6206;DHT22;3136;48.788;9.772;2023-06-10T04:53:48;13.50;99.90
6206;DHT22;3136;48.788;9.772;2023-06-10T04:56:13;13.60;99.90
6206;DHT22;3136;48.788;9.772;2023-06-10T04:58:40;13.70;99.90
6206;DHT22;3136;48.788;9.772;2023-06-10T05:01:06;13.80;99.90
6206;DHT22;3136;48.788;9.772;2023-06-10T05:03:31;13.90;99.90
6206;DHT22;3136;48.788;9.772;2023-06-10T05:05:57;14.00;99.90
6206;DHT22;3136;48.788;9.772;2023-06-10T05:08:22;14.20;99.90
6206;DHT22;3136;48.788;9.772;2023-06-10T05:10:48;14.30;99.90
6206;DHT22;3136;48.788;9.772;2023-06-10T05:13:13;14.40;99.90
6206;DHT22;3136;48.788;9.772;2023-06-10T05:15:39;14.50;99.90
6206;DHT22;3136;48.788;9.772;2023-06-10T05:18:05;14.60;99.90
6206;DHT22;3136;48.788;9.772;2023-06-10T05:20:31;14.70;99.90
6206;DHT22;3136;48.788;9.772;2023-06-10T05:22:56;14.80;99.90
6206;DHT22;3136;48.788;9.772;2023-06-10T05:25:22;14.80;99.90
6206;DHT22;3136;48.788;9.772;2023-06-10T05:27:47;14.90;99.90
6206;DHT22;3136;48.788;9.772;2023-06-10T05:30:13;15.00;99.90
6206;DHT22;3136;48.788;9.772;2023-06-10T05:32:39;15.10;99.90
6206;DHT22;3136;48.788;9.772;2023-06-10T05:35:04;15.10;99.90
6206;DHT22;3136;48.788;9.772;2023-06-10T05:37:33;15.30;99.90
6206;DHT22;3136;48.788;9.772;2023-06-10T05:39:59;15.40;99.90
6206;DHT22;3136;48.788;9.772;2023-06-10T05:42:25;15.50;99.90
6206;DHT22;3136;48.788;9.772;2023-06-10T05:44:50;15.60;99.90
6206;DHT22;3136;48.788;9.772;2023-06-10T05:47:16;15.70;99.90
6206;DHT22;3136;48.788;9.772;2023-06-10T05:49:42;15.80;99.90
6206;DHT22;3136;48.788;9.772;2023-06-10T05:52:07;15.90;99.90
6206;DHT22;3136;48.788;9.772;2023-06-10T05:54:33;17.70;99.90
6206;DHT22;3136;48.788;9.772;2023-06-10T05:56:59;16.10;99.90
6206;DHT22;3136;48.788;9.772;2023-06-10T05:59:24;16.20;99.90
6206;DHT22;3136;48.788;9.772;2023-06-10T06:01:50;16.30;99.90
6206;DHT22;3136;48.788;9.772;2023-06-10T06:04:16;16.40;99.90
6206;DHT22;3136;48.788;9.772;2023-06-10T06:06:41;16.60;99.90
6206;DHT22;3136;48.788;9.772;2023-06-10T06:09:07;16.70;99.90
6206;DHT22;3136;48.788;9.772;2023-06-10T06:11:34;16.80;99.90
6206;DHT22;3136;48.788;9.772;2023-06-10T06:14:00;17.00;99.90
6206;DHT22;3136;48.788;9.772;2023-06-10T06:16:25;17.10;99.90
6206;DHT22;3136;48.788;9.772;2023-06-10T06:18:51;17.30;99.90
6206;DHT22;3136;48.788;9.772;2023-06-10T06:21:16;17.40;99.90
6206;DHT22;3136;48.788;9.772;2023-06-10T06:23:42;17.60;99.90
6206;DHT22;3136;48.788;9.772;2023-06-10T06:26:08;17.80;99.90
6206;DHT22;3136;48.788;9.772;2023-06-10T06:28:33;18.00;99.90
6206;DHT22;3136;48.788;9.772;2023-06-10T06:30:59;18.10;99.90
6206;DHT22;3136;48.788;9.772;2023-06-10T06:33:24;18.20;99.90
6206;DHT22;3136;48.788;9.772;2023-06-10T06:35:51;18.50;99.90
6206;DHT22;3136;48.788;9.772;2023-06-10T06:38:17;18.50;99.90
6206;DHT22;3136;48.788;9.772;2023-06-10T06:40:42;18.70;99.90
6206;DHT22;3136;48.788;9.772;2023-06-10T06:43:08;18.80;99.90
6206;DHT22;3136;48.788;9.772;2023-06-10T06:45:34;18.90;99.90
6206;DHT22;3136;48.788;9.772;2023-06-10T06:47:59;19.30;99.90
6206;DHT22;3136;48.788;9.772;2023-06-10T06:50:25;19.20;99.90
6206;DHT22;3136;48.788;9.772;2023-06-10T06:52:51;19.30;99.90
6206;DHT22;3136;48.788;9.772;2023-06-10T06:55:16;19.40;99.90
6206;DHT22;3136;48.788;9.772;2023-06-10T06:57:42;19.50;99.90
6206;DHT22;3136;48.788;9.772;2023-06-10T07:00:08;19.60;99.90
6206;DHT22;3136;48.788;9.772;2023-06-10T07:02:34;19.70;99.90
6206;DHT22;3136;48.788;9.772;2023-06-10T07:05:00;19.80;99.90
6206;DHT22;3136;48.788;9.772;2023-06-10T07:07:26;20.00;99.90
6206;DHT22;3136;48.788;9.772;2023-06-10T07:09:52;20.00;99.90
6206;DHT22;3136;48.788;9.772;2023-06-10T07:12:18;20.10;99.90
6206;DHT22;3136;48.788;9.772;2023-06-10T07:14:44;20.30;99.90
6206;DHT22;3136;48.788;9.772;2023-06-10T07:17:09;20.40;99.90
6206;DHT22;3136;48.788;9.772;2023-06-10T07:19:35;20.50;99.90
6206;DHT22;3136;48.788;9.772;2023-06-10T07:22:01;20.60;99.90
6206;DHT22;3136;48.788;9.772;2023-06-10T07:24:26;20.60;99.90
6206;DHT22;3136;48.788;9.772;2023-06-10T07:26:52;20.70;99.90
6206;DHT22;3136;48.788;9.772;2023-06-10T07:29:18;20.80;99.90
6206;DHT22;3136;48.788;9.772;2023-06-10T07:31:43;20.90;99.90
6206;DHT22;3136;48.788;9.772;2023-06-10T07:34:09;20.80;99.90
6206;DHT22;3136;48.788;9.772;2023-06-10T07:36:34;21.00;99.90
6206;DHT22;3136;48.788;9.772;2023-06-10T07:39:00;21.00;99.90
6206;DHT22;3136;48.788;9.772;2023-06-10T07:41:25;21.10;99.90
6206;DHT22;3136;48.788;9.772;2023-06-10T07:43:53;21.20;99.90
6206;DHT22;3136;48.788;9.772;2023-06-10T07:46:21;21.30;99.90
6206;DHT22;3136;48.788;9.772;2023-06-10T07:48:47;21.40;99.90
6206;DHT22;3136;48.788;9.772;2023-06-10T07:51:15;21.50;99.60
6206;DHT22;3136;48.788;9.772;2023-06-10T07:53:41;21.60;98.20
6206;DHT22;3136;48.788;9.772;2023-06-10T07:56:06;21.70;96.30
6206;DHT22;3136;48.788;9.772;2023-06-10T07:58:32;21.80;96.70
6206;DHT22;3136;48.788;9.772;2023-06-10T08:00:58;21.90;94.80
6206;DHT22;3136;48.788;9.772;2023-06-10T08:03:27;22.00;94.10
6206;DHT22;3136;48.788;9.772;2023-06-10T08:05:53;22.10;92.30
6206;DHT22;3136;48.788;9.772;2023-06-10T08:08:18;22.20;91.80
6206;DHT22;3136;48.788;9.772;2023-06-10T08:10:44;22.30;91.00
6206;DHT22;3136;48.788;9.772;2023-06-10T08:13:10;22.40;88.80
6206;DHT22;3136;48.788;9.772;2023-06-10T08:15:35;22.50;91.10
6206;DHT22;3136;48.788;9.772;2023-06-10T08:18:01;22.60;89.90
6206;DHT22;3136;48.788;9.772;2023-06-10T08:20:26;22.70;86.00
6206;DHT22;3136;48.788;9.772;2023-06-10T08:22:52;22.80;85.90
6206;DHT22;3136;48.788;9.772;2023-06-10T08:25:17;22.90;85.30
6206;DHT22;3136;48.788;9.772;2023-06-10T08:27:43;23.00;84.10
6206;DHT22;3136;48.788;9.772;2023-06-10T08:30:09;23.10;82.80
6206;DHT22;3136;48.788;9.772;2023-06-10T08:32:36;23.20;80.80
6206;DHT22;3136;48.788;9.772;2023-06-10T08:35:02;23.30;97.20
6206;DHT22;3136;48.788;9.772;2023-06-10T08:37:28;23.30;77.50
6206;DHT22;3136;48.788;9.772;2023-06-10T08:39:54;23.30;78.10
6206;DHT22;3136;48.788;9.772;2023-06-10T08:44:53;23.50;74.80
6206;DHT22;3136;48.788;9.772;2023-06-10T08:47:19;23.50;74.10
6206;DHT22;3136;48.788;9.772;2023-06-10T08:49:47;23.70;73.30
6206;DHT22;3136;48.788;9.772;2023-06-10T08:52:18;23.70;72.00
6206;DHT22;3136;48.788;9.772;2023-06-10T08:54:52;23.80;72.00
6206;DHT22;3136;48.788;9.772;2023-06-10T08:57:20;24.00;73.80
6206;DHT22;3136;48.788;9.772;2023-06-10T08:59:47;24.10;72.20
6206;DHT22;3136;48.788;9.772;2023-06-10T09:02:14;24.20;69.80
6206;DHT22;3136;48.788;9.772;2023-06-10T09:04:42;24.30;69.70
6206;DHT22;3136;48.788;9.772;2023-06-10T09:07:09;24.30;66.90
6206;DHT22;3136;48.788;9.772;2023-06-10T09:09:36;24.30;67.10
6206;DHT22;3136;48.788;9.772;2023-06-10T09:12:02;24.50;68.20
6206;DHT22;3136;48.788;9.772;2023-06-10T09:14:28;24.40;90.90
6206;DHT22;3136;48.788;9.772;2023-06-10T09:16:54;24.40;65.80
6206;DHT22;3136;48.788;9.772;2023-06-10T09:19:23;24.40;66.20
6206;DHT22;3136;48.788;9.772;2023-06-10T09:21:49;24.30;67.50
6206;DHT22;3136;48.788;9.772;2023-06-10T09:24:15;24.50;67.70
6206;DHT22;3136;48.788;9.772;2023-06-10T09:26:42;24.40;66.50
6206;DHT22;3136;48.788;9.772;2023-06-10T09:29:09;24.60;66.90
6206;DHT22;3136;48.788;9.772;2023-06-10T09:31:38;24.70;64.30
6206;DHT22;3136;48.788;9.772;2023-06-10T09:34:14;24.70;64.80
6206;DHT22;3136;48.788;9.772;2023-06-10T09:36:40;24.80;64.30
6206;DHT22;3136;48.788;9.772;2023-06-10T09:39:14;24.90;64.10
6206;DHT22;3136;48.788;9.772;2023-06-10T09:41:41;24.90;60.10
6206;DHT22;3136;48.788;9.772;2023-06-10T09:44:14;24.90;60.20
6206;DHT22;3136;48.788;9.772;2023-06-10T09:46:40;24.90;59.30
6206;DHT22;3136;48.788;9.772;2023-06-10T09:49:06;25.10;61.10
6206;DHT22;3136;48.788;9.772;2023-06-10T09:51:32;25.10;58.50
6206;DHT22;3136;48.788;9.772;2023-06-10T09:53:59;25.30;58.00
6206;DHT22;3136;48.788;9.772;2023-06-10T09:56:34;25.30;57.20
6206;DHT22;3136;48.788;9.772;2023-06-10T09:59:00;25.50;57.40
6206;DHT22;3136;48.788;9.772;2023-06-10T10:01:26;25.70;56.40
6206;DHT22;3136;48.788;9.772;2023-06-10T10:03:52;25.80;57.30
6206;DHT22;3136;48.788;9.772;2023-06-10T10:06:19;25.90;55.50
6206;DHT22;3136;48.788;9.772;2023-06-10T10:08:48;25.90;54.10
6206;DHT22;3136;48.788;9.772;2023-06-10T10:11:17;26.00;53.10
6206;DHT22;3136;48.788;9.772;2023-06-10T10:13:45;26.10;54.10
6206;DHT22;3136;48.788;9.772;2023-06-10T10:16:16;26.20;54.50
6206;DHT22;3136;48.788;9.772;2023-06-10T10:18:46;26.30;53.40
6206;DHT22;3136;48.788;9.772;2023-06-10T10:21:16;26.30;53.10
6206;DHT22;3136;48.788;9.772;2023-06-10T10:26:18;26.30;52.50
6206;DHT22;3136;48.788;9.772;2023-06-10T10:29:02;26.30;51.20
6206;DHT22;3136;48.788;9.772;2023-06-10T10:31:29;26.60;50.70
6206;DHT22;3136;48.788;9.772;2023-06-10T10:33:58;26.80;51.10
6206;DHT22;3136;48.788;9.772;2023-06-10T10:36:25;27.00;48.60
6206;DHT22;3136;48.788;9.772;2023-06-10T10:38:51;27.20;48.90
6206;DHT22;3136;48.788;9.772;2023-06-10T10:41:18;27.20;47.20
6206;DHT22;3136;48.788;9.772;2023-06-10T10:43:45;27.20;50.50
6206;DHT22;3136;48.788;9.772;2023-06-10T10:46:13;27.50;47.70
6206;DHT22;3136;48.788;9.772;2023-06-10T10:48:39;28.00;45.50
6206;DHT22;3136;48.788;9.772;2023-06-10T10:51:07;28.60;43.70
6206;DHT22;3136;48.788;9.772;2023-06-10T10:53:32;29.20;41.20
6206;DHT22;3136;48.788;9.772;2023-06-10T10:56:07;29.20;40.50
6206;DHT22;3136;48.788;9.772;2023-06-10T10:58:34;29.10;41.00
6206;DHT22;3136;48.788;9.772;2023-06-10T11:00:59;28.90;42.00
6206;DHT22;3136;48.788;9.772;2023-06-10T11:03:44;29.30;40.40
6206;DHT22;3136;48.788;9.772;2023-06-10T11:06:16;29.80;37.90
6206;DHT22;3136;48.788;9.772;2023-06-10T11:11:28;29.00;38.50
6206;DHT22;3136;48.788;9.772;2023-06-10T11:16:41;29.40;40.80
6206;DHT22;3136;48.788;9.772;2023-06-10T11:19:08;29.30;38.90
6206;DHT22;3136;48.788;9.772;2023-06-10T11:22:00;29.40;36.60
6206;DHT22;3136;48.788;9.772;2023-06-10T11:24:26;29.20;37.10
6206;DHT22;3136;48.788;9.772;2023-06-10T11:30:20;28.80;37.70
6206;DHT22;3136;48.788;9.772;2023-06-10T11:32:50;28.40;36.60
6206;DHT22;3136;48.788;9.772;2023-06-10T11:35:18;28.80;36.20
6206;DHT22;3136;48.788;9.772;2023-06-10T11:37:44;29.50;34.90
6206;DHT22;3136;48.788;9.772;2023-06-10T11:40:11;30.20;32.00
6206;DHT22;3136;48.788;9.772;2023-06-10T11:42:43;30.80;31.20
6206;DHT22;3136;48.788;9.772;2023-06-10T11:45:15;31.20;33.80
6206;DHT22;3136;48.788;9.772;2023-06-10T11:47:58;31.70;29.30
6206;DHT22;3136;48.788;9.772;2023-06-10T11:50:33;32.20;28.70
6206;DHT22;3136;48.788;9.772;2023-06-10T11:52:59;32.50;28.20
6206;DHT22;3136;48.788;9.772;2023-06-10T11:55:47;32.60;29.10
6206;DHT22;3136;48.788;9.772;2023-06-10T11:58:19;32.70;27.30
6206;DHT22;3136;48.788;9.772;2023-06-10T12:00:52;32.90;26.10
6206;DHT22;3136;48.788;9.772;2023-06-10T12:03:28;32.90;26.80
6206;DHT22;3136;48.788;9.772;2023-06-10T12:06:05;32.60;26.00
6206;DHT22;3136;48.788;9.772;2023-06-10T12:08:31;33.30;25.50
6206;DHT22;3136;48.788;9.772;2023-06-10T12:10:58;33.10;24.70
6206;DHT22;3136;48.788;9.772;2023-06-10T12:13:26;33.00;24.80
6206;DHT22;3136;48.788;9.772;2023-06-10T12:15:52;32.80;25.40
6206;DHT22;3136;48.788;9.772;2023-06-10T12:18:22;32.60;24.60
6206;DHT22;3136;48.788;9.772;2023-06-10T12:20:48;32.10;25.60
6206;DHT22;3136;48.788;9.772;2023-06-10T12:23:15;31.70;25.10
6206;DHT22;3136;48.788;9.772;2023-06-10T12:25:53;32.10;24.80
6206;DHT22;3136;48.788;9.772;2023-06-10T12:28:22;31.90;24.60
6206;DHT22;3136;48.788;9.772;2023-06-10T12:30:48;31.20;24.50
6206;DHT22;3136;48.788;9.772;2023-06-10T12:33:20;30.60;24.20
6206;DHT22;3136;48.788;9.772;2023-06-10T12:35:51;30.40;24.40
6206;DHT22;3136;48.788;9.772;2023-06-10T12:38:24;30.90;24.20
6206;DHT22;3136;48.788;9.772;2023-06-10T12:40:50;31.50;24.00
6206;DHT22;3136;48.788;9.772;2023-06-10T12:43:20;32.10;23.10
6206;DHT22;3136;48.788;9.772;2023-06-10T12:45:46;32.60;23.00
6206;DHT22;3136;48.788;9.772;2023-06-10T12:48:18;32.70;22.90
6206;DHT22;3136;48.788;9.772;2023-06-10T12:50:44;32.90;21.70
6206;DHT22;3136;48.788;9.772;2023-06-10T12:53:11;33.30;21.60
6206;DHT22;3136;48.788;9.772;2023-06-10T12:55:37;33.40;22.00
6206;DHT22;3136;48.788;9.772;2023-06-10T12:58:03;33.60;21.80
6206;DHT22;3136;48.788;9.772;2023-06-10T13:00:29;33.80;21.70
6206;DHT22;3136;48.788;9.772;2023-06-10T13:02:57;33.90;20.30
6206;DHT22;3136;48.788;9.772;2023-06-10T13:05:22;33.90;21.50
6206;DHT22;3136;48.788;9.772;2023-06-10T13:07:48;33.90;21.30
6206;DHT22;3136;48.788;9.772;2023-06-10T13:10:15;33.50;21.00
6206;DHT22;3136;48.788;9.772;2023-06-10T13:12:45;32.90;20.80
6206;DHT22;3136;48.788;9.772;2023-06-10T13:15:11;32.80;20.80
6206;DHT22;3136;48.788;9.772;2023-06-10T13:17:37;32.90;19.60
6206;DHT22;3136;48.788;9.772;2023-06-10T13:20:04;33.20;19.90
6206;DHT22;3136;48.788;9.772;2023-06-10T13:22:33;33.50;20.20
6206;DHT22;3136;48.788;9.772;2023-06-10T13:25:04;33.80;20.60
6206;DHT22;3136;48.788;9.772;2023-06-10T13:27:30;34.00;19.90
6206;DHT22;3136;48.788;9.772;2023-06-10T13:29:56;34.10;19.70
6206;DHT22;3136;48.788;9.772;2023-06-10T13:32:21;33.90;18.80
6206;DHT22;3136;48.788;9.772;2023-06-10T13:34:47;33.90;18.90
6206;DHT22;3136;48.788;9.772;2023-06-10T13:37:14;33.60;19.10
6206;DHT22;3136;48.788;9.772;2023-06-10T13:39:42;32.50;18.10
6206;DHT22;3136;48.788;9.772;2023-06-10T13:42:08;31.50;18.20
6206;DHT22;3136;48.788;9.772;2023-06-10T13:44:34;30.70;17.80
6206;DHT22;3136;48.788;9.772;2023-06-10T13:47:02;30.60;19.10
6206;DHT22;3136;48.788;9.772;2023-06-10T13:49:28;30.90;18.50
6206;DHT22;3136;48.788;9.772;2023-06-10T13:51:53;31.30;19.10
6206;DHT22;3136;48.788;9.772;2023-06-10T13:54:19;31.70;19.50
6206;DHT22;3136;48.788;9.772;2023-06-10T13:56:45;31.80;18.20
6206;DHT22;3136;48.788;9.772;2023-06-10T13:59:10;31.70;18.30
6206;DHT22;3136;48.788;9.772;2023-06-10T14:01:36;31.40;16.90
6206;DHT22;3136;48.788;9.772;2023-06-10T14:04:03;30.90;16.60
6206;DHT22;3136;48.788;9.772;2023-06-10T14:06:28;30.60;16.20
6206;DHT22;3136;48.788;9.772;2023-06-10T14:08:54;30.20;17.00
6206;DHT22;3136;48.788;9.772;2023-06-10T14:11:20;30.00;16.90
6206;DHT22;3136;48.788;9.772;2023-06-10T14:13:46;29.70;18.70
6206;DHT22;3136;48.788;9.772;2023-06-10T14:16:12;29.40;18.70
6206;DHT22;3136;48.788;9.772;2023-06-10T14:18:38;29.30;17.70
6206;DHT22;3136;48.788;9.772;2023-06-10T14:21:03;29.20;17.90
6206;DHT22;3136;48.788;9.772;2023-06-10T14:23:29;29.10;18.50
6206;DHT22;3136;48.788;9.772;2023-06-10T14:25:54;29.00;17.90
6206;DHT22;3136;48.788;9.772;2023-06-10T14:28:20;28.80;17.70
6206;DHT22;3136;48.788;9.772;2023-06-10T14:30:46;28.80;34.20
6206;DHT22;3136;48.788;9.772;2023-06-10T14:33:11;28.70;17.80
6206;DHT22;3136;48.788;9.772;2023-06-10T14:35:37;28.60;16.70
6206;DHT22;3136;48.788;9.772;2023-06-10T14:38:02;28.50;19.20
6206;DHT22;3136;48.788;9.772;2023-06-10T14:40:28;28.40;18.10
6206;DHT22;3136;48.788;9.772;2023-06-10T14:42:56;28.30;17.70
6206;DHT22;3136;48.788;9.772;2023-06-10T14:45:22;28.20;18.30
6206;DHT22;3136;48.788;9.772;2023-06-10T14:47:47;28.20;18.00
6206;DHT22;3136;48.788;9.772;2023-06-10T14:50:13;28.10;17.50
6206;DHT22;3136;48.788;9.772;2023-06-10T14:52:39;28.10;18.20
6206;DHT22;3136;48.788;9.772;2023-06-10T14:55:05;28.10;18.90
6206;DHT22;3136;48.788;9.772;2023-06-10T14:57:31;28.00;18.70
6206;DHT22;3136;48.788;9.772;2023-06-10T14:59:57;27.90;19.10
6206;DHT22;3136;48.788;9.772;2023-06-10T15:02:23;27.90;19.60
6206;DHT22;3136;48.788;9.772;2023-06-10T15:04:48;27.80;19.00
6206;DHT22;3136;48.788;9.772;2023-06-10T15:07:14;27.70;19.10
6206;DHT22;3136;48.788;9.772;2023-06-10T15:09:43;27.80;18.60
6206;DHT22;3136;48.788;9.772;2023-06-10T15:12:09;27.70;19.00
6206;DHT22;3136;48.788;9.772;2023-06-10T15:14:34;27.60;19.80
6206;DHT22;3136;48.788;9.772;2023-06-10T15:17:00;27.50;19.00
6206;DHT22;3136;48.788;9.772;2023-06-10T15:19:26;27.50;20.10
6206;DHT22;3136;48.788;9.772;2023-06-10T15:21:52;27.50;18.50
6206;DHT22;3136;48.788;9.772;2023-06-10T15:24:18;27.40;19.80
6206;DHT22;3136;48.788;9.772;2023-06-10T15:26:44;27.40;19.90
6206;DHT22;3136;48.788;9.772;2023-06-10T15:29:10;27.40;19.90
6206;DHT22;3136;48.788;9.772;2023-06-10T15:31:35;27.30;20.70
6206;DHT22;3136;48.788;9.772;2023-06-10T15:34:01;27.30;19.30
6206;DHT22;3136;48.788;9.772;2023-06-10T15:36:27;27.20;19.90
6206;DHT22;3136;48.788;9.772;2023-06-10T15:38:53;27.20;20.90
6206;DHT22;3136;48.788;9.772;2023-06-10T15:41:19;27.20;21.30
6206;DHT22;3136;48.788;9.772;2023-06-10T15:43:45;27.20;21.00
6206;DHT22;3136;48.788;9.772;2023-06-10T15:46:11;27.20;20.70
6206;DHT22;3136;48.788;9.772;2023-06-10T15:48:37;27.20;20.60
6206;DHT22;3136;48.788;9.772;2023-06-10T15:51:02;27.30;20.30
6206;DHT22;3136;48.788;9.772;2023-06-10T15:53:28;27.20;20.10
6206;DHT22;3136;48.788;9.772;2023-06-10T15:55:54;27.10;20.30
6206;DHT22;3136;48.788;9.772;2023-06-10T15:58:20;26.90;20.30
6206;DHT22;3136;48.788;9.772;2023-06-10T16:00:45;26.80;20.60
6206;DHT22;3136;48.788;9.772;2023-06-10T16:03:11;26.70;20.90
6206;DHT22;3136;48.788;9.772;2023-06-10T16:05:36;26.70;21.90
6206;DHT22;3136;48.788;9.772;2023-06-10T16:08:02;26.70;20.70
6206;DHT22;3136;48.788;9.772;2023-06-10T16:10:27;26.70;21.20
6206;DHT22;3136;48.788;9.772;2023-06-10T16:12:53;26.70;21.70
6206;DHT22;3136;48.788;9.772;2023-06-10T16:15:19;26.60;20.90
6206;DHT22;3136;48.788;9.772;2023-06-10T16:17:44;26.60;22.50